Terminal Aerodrome Forecast
Issued by NWS

Home | Current Version | Previous Version | Text Only | Print | Product List | Glossary On
Versions: 1 2 3 4 5 6 7 8 9 10 11 12 13 14 15 16 17
000
FTUS45 KTFX 012340
TAFGTF
TAF
KGTF 012340Z 0200/0224 02008KT P6SM VCTS SCT060CB BKN100
      TEMPO 0200/0203 TSRAGS BKN045CB
     FM020300 15007KT P6SM VCSH SCT040 BKN070
      TEMPO 0203/0206 -SHRA BKN040
     FM020600 VRB05KT P6SM SCT060 BKN120
     FM021900 03007KT P6SM VCSH SCT040 BKN060=

USA.gov is the U.S. government's official web portal to all federal, state and local government web resources and services.